Terminal Aerodrome Forecast
Issued by NWS Shreveport, LA

Home | Current Version | Previous Version | Text Only | Print | Product List | Glossary On
Versions: 1 2 3 4 5 6 7 8 9 10 11 12 13 14 15 16
583
FTUS44 KSHV 190520
TAFELD
TAF
KELD 190520Z 1906/2006 VRB03KT P6SM FEW250
      TEMPO 1910/1913 6SM BR
     FM191400 23004KT P6SM FEW040 SCT150 BKN250
     FM191800 25007KT P6SM SCT050 SCT250
     FM200000 17005KT P6SM FEW250=

USA.gov is the U.S. government's official web portal to all federal, state and local government web resources and services.